sensor_id;sensor_type;location;lat;lon;timestamp;P1;durP1;ratioP1;P2;durP2;ratioP2
26600;SDS011;14241;49.260;10.496;2024-02-16T00:01:16;8.38;;;5.93;;
26600;SDS011;14241;49.260;10.496;2024-02-16T00:03:42;9.43;;;5.30;;
26600;SDS011;14241;49.260;10.496;2024-02-16T00:06:07;7.93;;;5.60;;
26600;SDS011;14241;49.260;10.496;2024-02-16T00:08:33;6.72;;;5.32;;
26600;SDS011;14241;49.260;10.496;2024-02-16T00:10:59;10.95;;;7.40;;
26600;SDS011;14241;49.260;10.496;2024-02-16T00:13:25;8.27;;;5.78;;
26600;SDS011;14241;49.260;10.496;2024-02-16T00:15:50;5.88;;;5.25;;
26600;SDS011;14241;49.260;10.496;2024-02-16T00:18:15;7.25;;;5.32;;
26600;SDS011;14241;49.260;10.496;2024-02-16T00:20:41;12.07;;;5.95;;
26600;SDS011;14241;49.260;10.496;2024-02-16T00:23:06;6.43;;;5.60;;
26600;SDS011;14241;49.260;10.496;2024-02-16T00:25:31;9.43;;;6.43;;
26600;SDS011;14241;49.260;10.496;2024-02-16T00:27:57;9.15;;;6.72;;
26600;SDS011;14241;49.260;10.496;2024-02-16T00:30:22;8.02;;;6.03;;
26600;SDS011;14241;49.260;10.496;2024-02-16T00:32:47;7.90;;;6.10;;
26600;SDS011;14241;49.260;10.496;2024-02-16T00:35:14;6.85;;;6.13;;
26600;SDS011;14241;49.260;10.496;2024-02-16T00:37:41;9.90;;;5.90;;
26600;SDS011;14241;49.260;10.496;2024-02-16T00:40:07;8.63;;;6.78;;
26600;SDS011;14241;49.260;10.496;2024-02-16T00:42:32;12.73;;;6.15;;
26600;SDS011;14241;49.260;10.496;2024-02-16T00:44:57;10.77;;;5.95;;
26600;SDS011;14241;49.260;10.496;2024-02-16T00:47:25;9.10;;;5.57;;
26600;SDS011;14241;49.260;10.496;2024-02-16T00:49:52;8.52;;;6.05;;
26600;SDS011;14241;49.260;10.496;2024-02-16T00:52:17;10.95;;;6.47;;
26600;SDS011;14241;49.260;10.496;2024-02-16T00:54:42;6.93;;;5.82;;
26600;SDS011;14241;49.260;10.496;2024-02-16T00:57:08;7.45;;;6.00;;
26600;SDS011;14241;49.260;10.496;2024-02-16T00:59:33;8.13;;;6.45;;
26600;SDS011;14241;49.260;10.496;2024-02-16T01:01:58;10.93;;;6.03;;
26600;SDS011;14241;49.260;10.496;2024-02-16T01:04:23;6.97;;;5.68;;
26600;SDS011;14241;49.260;10.496;2024-02-16T01:06:49;7.47;;;5.80;;
26600;SDS011;14241;49.260;10.496;2024-02-16T01:09:15;9.60;;;5.70;;
26600;SDS011;14241;49.260;10.496;2024-02-16T01:11:41;7.47;;;5.53;;
26600;SDS011;14241;49.260;10.496;2024-02-16T01:14:06;8.45;;;6.00;;
26600;SDS011;14241;49.260;10.496;2024-02-16T01:16:32;8.15;;;6.13;;
26600;SDS011;14241;49.260;10.496;2024-02-16T01:18:57;9.60;;;5.63;;
26600;SDS011;14241;49.260;10.496;2024-02-16T01:21:23;6.57;;;5.60;;
26600;SDS011;14241;49.260;10.496;2024-02-16T01:23:48;7.93;;;5.88;;
26600;SDS011;14241;49.260;10.496;2024-02-16T01:26:13;7.07;;;5.70;;
26600;SDS011;14241;49.260;10.496;2024-02-16T01:28:39;6.88;;;6.03;;
26600;SDS011;14241;49.260;10.496;2024-02-16T01:31:04;7.40;;;5.90;;
26600;SDS011;14241;49.260;10.496;2024-02-16T01:33:29;9.02;;;6.20;;
26600;SDS011;14241;49.260;10.496;2024-02-16T01:35:54;8.98;;;6.30;;
26600;SDS011;14241;49.260;10.496;2024-02-16T01:38:20;6.93;;;6.32;;
26600;SDS011;14241;49.260;10.496;2024-02-16T01:40:47;8.32;;;5.93;;
26600;SDS011;14241;49.260;10.496;2024-02-16T01:43:13;9.88;;;6.40;;
26600;SDS011;14241;49.260;10.496;2024-02-16T01:45:38;7.25;;;6.03;;
26600;SDS011;14241;49.260;10.496;2024-02-16T01:48:04;8.18;;;6.10;;
26600;SDS011;14241;49.260;10.496;2024-02-16T01:50:29;6.70;;;5.85;;
26600;SDS011;14241;49.260;10.496;2024-02-16T01:52:55;6.88;;;6.13;;
26600;SDS011;14241;49.260;10.496;2024-02-16T01:55:20;7.07;;;5.95;;
26600;SDS011;14241;49.260;10.496;2024-02-16T01:57:47;7.10;;;6.10;;
26600;SDS011;14241;49.260;10.496;2024-02-16T02:00:12;7.60;;;5.80;;
26600;SDS011;14241;49.260;10.496;2024-02-16T02:02:40;7.03;;;6.32;;
26600;SDS011;14241;49.260;10.496;2024-02-16T02:05:05;7.07;;;6.20;;
26600;SDS011;14241;49.260;10.496;2024-02-16T02:07:31;9.23;;;7.18;;
26600;SDS011;14241;49.260;10.496;2024-02-16T02:09:56;7.47;;;6.68;;
26600;SDS011;14241;49.260;10.496;2024-02-16T02:12:21;8.85;;;7.20;;
26600;SDS011;14241;49.260;10.496;2024-02-16T02:14:50;8.60;;;6.53;;
26600;SDS011;14241;49.260;10.496;2024-02-16T02:17:16;8.35;;;6.82;;
26600;SDS011;14241;49.260;10.496;2024-02-16T02:19:42;8.15;;;6.47;;
26600;SDS011;14241;49.260;10.496;2024-02-16T02:22:13;10.00;;;7.65;;
26600;SDS011;14241;49.260;10.496;2024-02-16T02:24:39;8.23;;;6.90;;
26600;SDS011;14241;49.260;10.496;2024-02-16T02:27:04;8.88;;;7.25;;
26600;SDS011;14241;49.260;10.496;2024-02-16T02:29:29;10.52;;;6.93;;
26600;SDS011;14241;49.260;10.496;2024-02-16T02:31:55;10.57;;;7.25;;
26600;SDS011;14241;49.260;10.496;2024-02-16T02:34:20;8.65;;;7.28;;
26600;SDS011;14241;49.260;10.496;2024-02-16T02:36:45;9.63;;;7.90;;
26600;SDS011;14241;49.260;10.496;2024-02-16T02:39:11;10.15;;;8.15;;
26600;SDS011;14241;49.260;10.496;2024-02-16T02:41:37;11.07;;;8.40;;
26600;SDS011;14241;49.260;10.496;2024-02-16T02:44:02;11.73;;;8.85;;
26600;SDS011;14241;49.260;10.496;2024-02-16T02:46:27;10.77;;;8.95;;
26600;SDS011;14241;49.260;10.496;2024-02-16T02:48:52;10.07;;;8.93;;
26600;SDS011;14241;49.260;10.496;2024-02-16T02:51:18;11.02;;;8.88;;
26600;SDS011;14241;49.260;10.496;2024-02-16T02:53:43;12.88;;;8.82;;
26600;SDS011;14241;49.260;10.496;2024-02-16T02:56:09;12.05;;;9.10;;
26600;SDS011;14241;49.260;10.496;2024-02-16T02:58:34;10.73;;;9.43;;
26600;SDS011;14241;49.260;10.496;2024-02-16T03:00:59;11.00;;;9.00;;
26600;SDS011;14241;49.260;10.496;2024-02-16T03:03:25;12.85;;;9.27;;
26600;SDS011;14241;49.260;10.496;2024-02-16T03:05:50;10.40;;;9.05;;
26600;SDS011;14241;49.260;10.496;2024-02-16T03:08:15;11.65;;;9.23;;
26600;SDS011;14241;49.260;10.496;2024-02-16T03:10:41;11.68;;;9.45;;
26600;SDS011;14241;49.260;10.496;2024-02-16T03:13:06;11.68;;;9.40;;
26600;SDS011;14241;49.260;10.496;2024-02-16T03:15:34;10.32;;;9.27;;
26600;SDS011;14241;49.260;10.496;2024-02-16T03:18:04;13.02;;;9.73;;
26600;SDS011;14241;49.260;10.496;2024-02-16T03:20:29;13.43;;;9.70;;
26600;SDS011;14241;49.260;10.496;2024-02-16T03:22:55;11.25;;;10.05;;
26600;SDS011;14241;49.260;10.496;2024-02-16T03:25:20;12.88;;;9.43;;
26600;SDS011;14241;49.260;10.496;2024-02-16T03:27:46;11.65;;;10.23;;
26600;SDS011;14241;49.260;10.496;2024-02-16T03:30:11;11.82;;;9.35;;
26600;SDS011;14241;49.260;10.496;2024-02-16T03:32:36;11.38;;;9.77;;
26600;SDS011;14241;49.260;10.496;2024-02-16T03:35:02;14.07;;;10.05;;
26600;SDS011;14241;49.260;10.496;2024-02-16T03:37:29;12.80;;;10.77;;
26600;SDS011;14241;49.260;10.496;2024-02-16T03:39:54;12.07;;;10.27;;
26600;SDS011;14241;49.260;10.496;2024-02-16T03:42:20;12.18;;;10.50;;
26600;SDS011;14241;49.260;10.496;2024-02-16T03:44:46;11.23;;;10.05;;
26600;SDS011;14241;49.260;10.496;2024-02-16T03:47:11;13.88;;;11.32;;
26600;SDS011;14241;49.260;10.496;2024-02-16T03:49:37;13.57;;;10.25;;
26600;SDS011;14241;49.260;10.496;2024-02-16T03:52:03;12.20;;;10.20;;
26600;SDS011;14241;49.260;10.496;2024-02-16T03:54:28;11.93;;;10.68;;
26600;SDS011;14241;49.260;10.496;2024-02-16T03:56:54;11.40;;;10.20;;
26600;SDS011;14241;49.260;10.496;2024-02-16T03:59:20;11.73;;;10.48;;
26600;SDS011;14241;49.260;10.496;2024-02-16T04:01:45;14.52;;;10.55;;
26600;SDS011;14241;49.260;10.496;2024-02-16T04:04:11;12.02;;;9.70;;
26600;SDS011;14241;49.260;10.496;2024-02-16T04:06:37;12.93;;;10.00;;
26600;SDS011;14241;49.260;10.496;2024-02-16T04:09:03;11.35;;;9.73;;
26600;SDS011;14241;49.260;10.496;2024-02-16T04:11:29;11.55;;;9.23;;
26600;SDS011;14241;49.260;10.496;2024-02-16T04:13:55;10.32;;;9.23;;
26600;SDS011;14241;49.260;10.496;2024-02-16T04:16:20;11.18;;;9.75;;
26600;SDS011;14241;49.260;10.496;2024-02-16T04:18:47;11.48;;;10.07;;
26600;SDS011;14241;49.260;10.496;2024-02-16T04:21:12;12.00;;;9.57;;
26600;SDS011;14241;49.260;10.496;2024-02-16T04:23:37;12.60;;;9.75;;
26600;SDS011;14241;49.260;10.496;2024-02-16T04:26:03;10.55;;;9.35;;
26600;SDS011;14241;49.260;10.496;2024-02-16T04:28:29;10.75;;;8.98;;
26600;SDS011;14241;49.260;10.496;2024-02-16T04:30:54;10.25;;;9.15;;
26600;SDS011;14241;49.260;10.496;2024-02-16T04:33:19;11.02;;;9.73;;
26600;SDS011;14241;49.260;10.496;2024-02-16T04:35:45;11.73;;;8.93;;
26600;SDS011;14241;49.260;10.496;2024-02-16T04:38:13;11.93;;;10.18;;
26600;SDS011;14241;49.260;10.496;2024-02-16T04:40:38;10.55;;;9.55;;
26600;SDS011;14241;49.260;10.496;2024-02-16T04:43:04;12.90;;;9.73;;
26600;SDS011;14241;49.260;10.496;2024-02-16T04:45:29;11.07;;;9.93;;
26600;SDS011;14241;49.260;10.496;2024-02-16T04:47:55;10.85;;;9.45;;
26600;SDS011;14241;49.260;10.496;2024-02-16T04:50:20;15.38;;;10.15;;
26600;SDS011;14241;49.260;10.496;2024-02-16T04:52:46;12.98;;;10.18;;
26600;SDS011;14241;49.260;10.496;2024-02-16T04:55:11;12.52;;;10.30;;
26600;SDS011;14241;49.260;10.496;2024-02-16T04:57:36;11.35;;;10.13;;
26600;SDS011;14241;49.260;10.496;2024-02-16T05:00:02;11.77;;;10.07;;
26600;SDS011;14241;49.260;10.496;2024-02-16T05:02:28;12.18;;;10.52;;
26600;SDS011;14241;49.260;10.496;2024-02-16T05:04:53;11.30;;;10.10;;
26600;SDS011;14241;49.260;10.496;2024-02-16T05:07:18;11.65;;;10.45;;
26600;SDS011;14241;49.260;10.496;2024-02-16T05:09:44;15.93;;;10.90;;
26600;SDS011;14241;49.260;10.496;2024-02-16T05:12:10;13.43;;;10.70;;
26600;SDS011;14241;49.260;10.496;2024-02-16T05:14:35;12.25;;;10.95;;
26600;SDS011;14241;49.260;10.496;2024-02-16T05:17:01;11.75;;;10.52;;
26600;SDS011;14241;49.260;10.496;2024-02-16T05:19:26;15.40;;;11.50;;
26600;SDS011;14241;49.260;10.496;2024-02-16T05:21:51;14.85;;;11.95;;
26600;SDS011;14241;49.260;10.496;2024-02-16T05:24:17;15.20;;;12.82;;
26600;SDS011;14241;49.260;10.496;2024-02-16T05:26:42;14.95;;;12.10;;
26600;SDS011;14241;49.260;10.496;2024-02-16T05:29:08;14.50;;;11.95;;
26600;SDS011;14241;49.260;10.496;2024-02-16T05:31:33;18.60;;;12.93;;
26600;SDS011;14241;49.260;10.496;2024-02-16T05:33:58;14.98;;;13.40;;
26600;SDS011;14241;49.260;10.496;2024-02-16T05:36:24;14.85;;;12.43;;
26600;SDS011;14241;49.260;10.496;2024-02-16T05:38:52;16.00;;;12.98;;
26600;SDS011;14241;49.260;10.496;2024-02-16T05:41:20;16.58;;;13.57;;
26600;SDS011;14241;49.260;10.496;2024-02-16T05:43:45;14.52;;;13.07;;
26600;SDS011;14241;49.260;10.496;2024-02-16T05:46:13;17.20;;;12.77;;
26600;SDS011;14241;49.260;10.496;2024-02-16T05:48:39;13.48;;;11.93;;
26600;SDS011;14241;49.260;10.496;2024-02-16T05:51:05;14.52;;;12.82;;
26600;SDS011;14241;49.260;10.496;2024-02-16T05:53:31;14.93;;;13.18;;
26600;SDS011;14241;49.260;10.496;2024-02-16T05:55:56;15.13;;;13.63;;
26600;SDS011;14241;49.260;10.496;2024-02-16T05:58:21;16.45;;;13.95;;
26600;SDS011;14241;49.260;10.496;2024-02-16T06:00:48;18.15;;;13.82;;
26600;SDS011;14241;49.260;10.496;2024-02-16T06:03:14;15.13;;;13.63;;
26600;SDS011;14241;49.260;10.496;2024-02-16T06:05:39;19.20;;;15.15;;
26600;SDS011;14241;49.260;10.496;2024-02-16T06:08:07;17.08;;;14.27;;
26600;SDS011;14241;49.260;10.496;2024-02-16T06:10:32;16.27;;;14.32;;
26600;SDS011;14241;49.260;10.496;2024-02-16T06:12:58;16.90;;;15.02;;
26600;SDS011;14241;49.260;10.496;2024-02-16T06:15:23;18.88;;;14.90;;
26600;SDS011;14241;49.260;10.496;2024-02-16T06:17:48;18.60;;;14.77;;
26600;SDS011;14241;49.260;10.496;2024-02-16T06:20:14;16.70;;;14.65;;
26600;SDS011;14241;49.260;10.496;2024-02-16T06:22:40;16.67;;;14.40;;
26600;SDS011;14241;49.260;10.496;2024-02-16T06:25:05;20.35;;;15.30;;
26600;SDS011;14241;49.260;10.496;2024-02-16T06:27:30;18.48;;;16.45;;
26600;SDS011;14241;49.260;10.496;2024-02-16T06:29:56;17.67;;;15.80;;
26600;SDS011;14241;49.260;10.496;2024-02-16T06:32:21;17.00;;;15.20;;
26600;SDS011;14241;49.260;10.496;2024-02-16T06:34:46;18.48;;;15.48;;
26600;SDS011;14241;49.260;10.496;2024-02-16T06:37:12;18.95;;;15.50;;
26600;SDS011;14241;49.260;10.496;2024-02-16T06:39:37;18.70;;;14.13;;
26600;SDS011;14241;49.260;10.496;2024-02-16T06:42:02;16.83;;;15.07;;
26600;SDS011;14241;49.260;10.496;2024-02-16T06:44:28;15.50;;;13.85;;
26600;SDS011;14241;49.260;10.496;2024-02-16T06:46:53;18.38;;;14.40;;
26600;SDS011;14241;49.260;10.496;2024-02-16T06:49:19;16.42;;;13.35;;
26600;SDS011;14241;49.260;10.496;2024-02-16T06:51:44;17.40;;;14.27;;
26600;SDS011;14241;49.260;10.496;2024-02-16T06:54:10;16.45;;;14.52;;
26600;SDS011;14241;49.260;10.496;2024-02-16T06:56:35;17.70;;;15.32;;
26600;SDS011;14241;49.260;10.496;2024-02-16T06:59:01;16.98;;;14.88;;
26600;SDS011;14241;49.260;10.496;2024-02-16T07:01:26;17.58;;;14.82;;
26600;SDS011;14241;49.260;10.496;2024-02-16T07:03:52;17.15;;;15.35;;
26600;SDS011;14241;49.260;10.496;2024-02-16T07:06:18;17.85;;;14.77;;
26600;SDS011;14241;49.260;10.496;2024-02-16T07:08:43;18.92;;;16.25;;
26600;SDS011;14241;49.260;10.496;2024-02-16T07:11:11;32.97;;;25.23;;
26600;SDS011;14241;49.260;10.496;2024-02-16T07:13:38;22.38;;;18.73;;
26600;SDS011;14241;49.260;10.496;2024-02-16T07:16:04;22.85;;;18.92;;
26600;SDS011;14241;49.260;10.496;2024-02-16T07:18:32;22.67;;;18.80;;
26600;SDS011;14241;49.260;10.496;2024-02-16T07:20:57;23.38;;;20.25;;
26600;SDS011;14241;49.260;10.496;2024-02-16T07:23:24;23.95;;;19.70;;
26600;SDS011;14241;49.260;10.496;2024-02-16T07:25:49;27.42;;;22.90;;
26600;SDS011;14241;49.260;10.496;2024-02-16T07:28:14;25.10;;;21.40;;
26600;SDS011;14241;49.260;10.496;2024-02-16T07:30:40;24.77;;;20.90;;
26600;SDS011;14241;49.260;10.496;2024-02-16T07:33:05;22.08;;;19.73;;
26600;SDS011;14241;49.260;10.496;2024-02-16T07:35:35;25.23;;;21.27;;
26600;SDS011;14241;49.260;10.496;2024-02-16T07:38:01;23.25;;;19.38;;
26600;SDS011;14241;49.260;10.496;2024-02-16T07:40:27;23.13;;;19.10;;
26600;SDS011;14241;49.260;10.496;2024-02-16T07:42:52;23.55;;;19.65;;
26600;SDS011;14241;49.260;10.496;2024-02-16T07:45:17;23.85;;;21.33;;
26600;SDS011;14241;49.260;10.496;2024-02-16T07:47:42;29.55;;;23.65;;
26600;SDS011;14241;49.260;10.496;2024-02-16T07:50:08;25.27;;;21.55;;
26600;SDS011;14241;49.260;10.496;2024-02-16T07:52:34;26.77;;;21.50;;
26600;SDS011;14241;49.260;10.496;2024-02-16T07:54:59;39.05;;;29.98;;
26600;SDS011;14241;49.260;10.496;2024-02-16T07:57:25;39.08;;;30.80;;
26600;SDS011;14241;49.260;10.496;2024-02-16T07:59:50;40.92;;;30.27;;
26600;SDS011;14241;49.260;10.496;2024-02-16T08:02:15;32.47;;;26.30;;
26600;SDS011;14241;49.260;10.496;2024-02-16T08:04:42;27.55;;;22.92;;
26600;SDS011;14241;49.260;10.496;2024-02-16T08:07:08;25.17;;;21.42;;
26600;SDS011;14241;49.260;10.496;2024-02-16T08:09:34;24.20;;;20.73;;
26600;SDS011;14241;49.260;10.496;2024-02-16T08:11:59;25.20;;;21.48;;
26600;SDS011;14241;49.260;10.496;2024-02-16T08:14:25;21.58;;;19.13;;
26600;SDS011;14241;49.260;10.496;2024-02-16T08:16:50;23.30;;;19.98;;
26600;SDS011;14241;49.260;10.496;2024-02-16T08:19:16;25.33;;;20.02;;
26600;SDS011;14241;49.260;10.496;2024-02-16T08:21:41;22.98;;;20.33;;
26600;SDS011;14241;49.260;10.496;2024-02-16T08:24:06;23.17;;;20.00;;
26600;SDS011;14241;49.260;10.496;2024-02-16T08:26:32;21.15;;;18.70;;
26600;SDS011;14241;49.260;10.496;2024-02-16T08:28:57;20.88;;;18.70;;
26600;SDS011;14241;49.260;10.496;2024-02-16T08:31:23;20.80;;;17.77;;
26600;SDS011;14241;49.260;10.496;2024-02-16T08:33:48;23.75;;;18.35;;
26600;SDS011;14241;49.260;10.496;2024-02-16T08:36:14;21.48;;;19.10;;
26600;SDS011;14241;49.260;10.496;2024-02-16T08:38:39;20.73;;;18.50;;
26600;SDS011;14241;49.260;10.496;2024-02-16T08:41:04;24.50;;;19.27;;
26600;SDS011;14241;49.260;10.496;2024-02-16T08:43:29;20.25;;;18.15;;
26600;SDS011;14241;49.260;10.496;2024-02-16T08:45:55;23.88;;;18.95;;
26600;SDS011;14241;49.260;10.496;2024-02-16T08:48:21;20.98;;;18.40;;
26600;SDS011;14241;49.260;10.496;2024-02-16T08:50:46;19.85;;;17.80;;
26600;SDS011;14241;49.260;10.496;2024-02-16T08:53:12;20.02;;;16.75;;
26600;SDS011;14241;49.260;10.496;2024-02-16T08:55:39;20.30;;;18.13;;
26600;SDS011;14241;49.260;10.496;2024-02-16T08:58:06;22.40;;;17.75;;
26600;SDS011;14241;49.260;10.496;2024-02-16T09:00:32;24.13;;;18.58;;
26600;SDS011;14241;49.260;10.496;2024-02-16T09:02:57;20.55;;;18.35;;
26600;SDS011;14241;49.260;10.496;2024-02-16T09:05:23;21.60;;;19.05;;
26600;SDS011;14241;49.260;10.496;2024-02-16T09:07:48;21.65;;;18.95;;
26600;SDS011;14241;49.260;10.496;2024-02-16T09:10:13;25.73;;;21.08;;
26600;SDS011;14241;49.260;10.496;2024-02-16T09:12:39;26.80;;;21.63;;
26600;SDS011;14241;49.260;10.496;2024-02-16T09:15:05;26.80;;;21.17;;
26600;SDS011;14241;49.260;10.496;2024-02-16T09:17:31;23.90;;;20.90;;
26600;SDS011;14241;49.260;10.496;2024-02-16T09:19:56;22.95;;;20.52;;
26600;SDS011;14241;49.260;10.496;2024-02-16T09:22:22;22.20;;;19.90;;
26600;SDS011;14241;49.260;10.496;2024-02-16T09:24:47;25.52;;;19.45;;
26600;SDS011;14241;49.260;10.496;2024-02-16T09:27:12;22.60;;;18.27;;
26600;SDS011;14241;49.260;10.496;2024-02-16T09:29:38;18.83;;;17.00;;
26600;SDS011;14241;49.260;10.496;2024-02-16T09:32:03;20.50;;;18.30;;
26600;SDS011;14241;49.260;10.496;2024-02-16T09:34:28;20.65;;;18.02;;
26600;SDS011;14241;49.260;10.496;2024-02-16T09:36:54;19.73;;;17.23;;
26600;SDS011;14241;49.260;10.496;2024-02-16T09:39:19;18.52;;;16.52;;
26600;SDS011;14241;49.260;10.496;2024-02-16T09:41:44;19.77;;;17.38;;
26600;SDS011;14241;49.260;10.496;2024-02-16T09:44:11;20.88;;;16.60;;
26600;SDS011;14241;49.260;10.496;2024-02-16T09:46:36;17.10;;;15.27;;
26600;SDS011;14241;49.260;10.496;2024-02-16T09:49:02;18.65;;;15.48;;
26600;SDS011;14241;49.260;10.496;2024-02-16T09:51:28;19.80;;;14.70;;
26600;SDS011;14241;49.260;10.496;2024-02-16T09:53:53;17.40;;;14.48;;
26600;SDS011;14241;49.260;10.496;2024-02-16T09:56:20;17.63;;;15.02;;
26600;SDS011;14241;49.260;10.496;2024-02-16T09:58:46;15.95;;;13.93;;
26600;SDS011;14241;49.260;10.496;2024-02-16T10:01:17;15.65;;;13.10;;
26600;SDS011;14241;49.260;10.496;2024-02-16T10:03:43;15.73;;;12.73;;
26600;SDS011;14241;49.260;10.496;2024-02-16T10:06:09;16.15;;;13.30;;
26600;SDS011;14241;49.260;10.496;2024-02-16T10:08:35;16.73;;;13.48;;
26600;SDS011;14241;49.260;10.496;2024-02-16T10:11:11;15.73;;;13.95;;
26600;SDS011;14241;49.260;10.496;2024-02-16T10:13:36;19.05;;;14.48;;
26600;SDS011;14241;49.260;10.496;2024-02-16T10:16:09;17.45;;;13.32;;
26600;SDS011;14241;49.260;10.496;2024-02-16T10:18:36;17.00;;;14.18;;
26600;SDS011;14241;49.260;10.496;2024-02-16T10:21:02;16.42;;;14.15;;
26600;SDS011;14241;49.260;10.496;2024-02-16T10:23:28;15.73;;;13.90;;
26600;SDS011;14241;49.260;10.496;2024-02-16T10:25:53;16.90;;;14.07;;
26600;SDS011;14241;49.260;10.496;2024-02-16T10:28:19;17.48;;;13.43;;
26600;SDS011;14241;49.260;10.496;2024-02-16T10:30:46;15.40;;;12.68;;
26600;SDS011;14241;49.260;10.496;2024-02-16T10:33:13;16.65;;;12.82;;
26600;SDS011;14241;49.260;10.496;2024-02-16T10:35:38;16.45;;;13.07;;
26600;SDS011;14241;49.260;10.496;2024-02-16T10:38:05;15.90;;;14.20;;
26600;SDS011;14241;49.260;10.496;2024-02-16T10:40:36;15.48;;;13.20;;
26600;SDS011;14241;49.260;10.496;2024-02-16T10:43:03;19.70;;;13.27;;
26600;SDS011;14241;49.260;10.496;2024-02-16T10:45:29;22.88;;;15.57;;
26600;SDS011;14241;49.260;10.496;2024-02-16T10:47:57;15.25;;;13.65;;
26600;SDS011;14241;49.260;10.496;2024-02-16T10:50:22;15.55;;;13.18;;
26600;SDS011;14241;49.260;10.496;2024-02-16T10:52:48;16.75;;;13.15;;
26600;SDS011;14241;49.260;10.496;2024-02-16T10:55:14;14.77;;;13.18;;
26600;SDS011;14241;49.260;10.496;2024-02-16T10:57:41;15.30;;;12.98;;
26600;SDS011;14241;49.260;10.496;2024-02-16T11:00:09;16.42;;;12.60;;
26600;SDS011;14241;49.260;10.496;2024-02-16T11:02:56;16.00;;;11.75;;
26600;SDS011;14241;49.260;10.496;2024-02-16T11:05:40;14.00;;;11.90;;
26600;SDS011;14241;49.260;10.496;2024-02-16T11:08:14;16.02;;;11.93;;
26600;SDS011;14241;49.260;10.496;2024-02-16T11:10:40;13.63;;;11.65;;
26600;SDS011;14241;49.260;10.496;2024-02-16T11:13:05;18.15;;;11.13;;
26600;SDS011;14241;49.260;10.496;2024-02-16T11:15:32;14.75;;;11.82;;
26600;SDS011;14241;49.260;10.496;2024-02-16T11:18:00;14.05;;;12.55;;
26600;SDS011;14241;49.260;10.496;2024-02-16T11:20:25;13.07;;;11.68;;
26600;SDS011;14241;49.260;10.496;2024-02-16T11:22:51;14.93;;;12.25;;
26600;SDS011;14241;49.260;10.496;2024-02-16T11:25:17;12.77;;;10.98;;
26600;SDS011;14241;49.260;10.496;2024-02-16T11:27:42;14.65;;;10.85;;
26600;SDS011;14241;49.260;10.496;2024-02-16T11:30:11;14.38;;;11.15;;
26600;SDS011;14241;49.260;10.496;2024-02-16T11:32:36;15.25;;;11.32;;
26600;SDS011;14241;49.260;10.496;2024-02-16T11:35:08;13.48;;;11.02;;
26600;SDS011;14241;49.260;10.496;2024-02-16T11:37:34;11.73;;;10.48;;
26600;SDS011;14241;49.260;10.496;2024-02-16T11:39:59;15.52;;;11.60;;
26600;SDS011;14241;49.260;10.496;2024-02-16T11:42:24;16.42;;;12.02;;
26600;SDS011;14241;49.260;10.496;2024-02-16T11:44:50;12.68;;;10.48;;
26600;SDS011;14241;49.260;10.496;2024-02-16T11:47:18;12.95;;;9.38;;
26600;SDS011;14241;49.260;10.496;2024-02-16T11:49:44;11.18;;;8.85;;
26600;SDS011;14241;49.260;10.496;2024-02-16T11:52:09;10.55;;;8.80;;
26600;SDS011;14241;49.260;10.496;2024-02-16T11:54:35;10.45;;;7.60;;
26600;SDS011;14241;49.260;10.496;2024-02-16T11:57:02;9.75;;;7.53;;
26600;SDS011;14241;49.260;10.496;2024-02-16T11:59:27;8.80;;;6.40;;
26600;SDS011;14241;49.260;10.496;2024-02-16T12:01:56;9.32;;;5.63;;
26600;SDS011;14241;49.260;10.496;2024-02-16T12:04:24;9.23;;;5.72;;
26600;SDS011;14241;49.260;10.496;2024-02-16T12:06:57;7.15;;;5.47;;
26600;SDS011;14241;49.260;10.496;2024-02-16T12:09:23;6.30;;;5.22;;
26600;SDS011;14241;49.260;10.496;2024-02-16T12:11:49;9.85;;;5.85;;
26600;SDS011;14241;49.260;10.496;2024-02-16T12:14:15;9.57;;;5.53;;
26600;SDS011;14241;49.260;10.496;2024-02-16T12:16:41;7.25;;;5.32;;
26600;SDS011;14241;49.260;10.496;2024-02-16T12:19:06;4.85;;;3.85;;
26600;SDS011;14241;49.260;10.496;2024-02-16T12:21:32;7.55;;;5.35;;
26600;SDS011;14241;49.260;10.496;2024-02-16T12:23:58;5.85;;;4.60;;
26600;SDS011;14241;49.260;10.496;2024-02-16T12:26:23;7.95;;;4.30;;
26600;SDS011;14241;49.260;10.496;2024-02-16T12:28:48;5.43;;;4.47;;
26600;SDS011;14241;49.260;10.496;2024-02-16T12:31:20;6.72;;;4.57;;
26600;SDS011;14241;49.260;10.496;2024-02-16T12:33:46;6.53;;;4.93;;
26600;SDS011;14241;49.260;10.496;2024-02-16T12:36:11;8.48;;;5.95;;
26600;SDS011;14241;49.260;10.496;2024-02-16T12:38:36;7.13;;;5.70;;
26600;SDS011;14241;49.260;10.496;2024-02-16T12:41:02;8.32;;;6.13;;
26600;SDS011;14241;49.260;10.496;2024-02-16T12:43:27;7.03;;;5.60;;
26600;SDS011;14241;49.260;10.496;2024-02-16T12:45:52;6.93;;;4.82;;
26600;SDS011;14241;49.260;10.496;2024-02-16T12:48:17;5.53;;;4.15;;
26600;SDS011;14241;49.260;10.496;2024-02-16T12:50:43;7.93;;;4.10;;
26600;SDS011;14241;49.260;10.496;2024-02-16T12:53:08;8.07;;;4.22;;
26600;SDS011;14241;49.260;10.496;2024-02-16T12:55:34;6.25;;;4.28;;
26600;SDS011;14241;49.260;10.496;2024-02-16T12:57:59;7.55;;;4.95;;
26600;SDS011;14241;49.260;10.496;2024-02-16T13:00:24;8.65;;;4.45;;
26600;SDS011;14241;49.260;10.496;2024-02-16T13:02:50;7.30;;;4.93;;
26600;SDS011;14241;49.260;10.496;2024-02-16T13:05:15;6.28;;;4.55;;
26600;SDS011;14241;49.260;10.496;2024-02-16T13:07:40;6.95;;;4.53;;
26600;SDS011;14241;49.260;10.496;2024-02-16T13:10:07;5.70;;;4.45;;
26600;SDS011;14241;49.260;10.496;2024-02-16T13:12:32;4.68;;;3.40;;
26600;SDS011;14241;49.260;10.496;2024-02-16T13:14:58;4.68;;;3.40;;
26600;SDS011;14241;49.260;10.496;2024-02-16T13:17:23;3.83;;;2.80;;
26600;SDS011;14241;49.260;10.496;2024-02-16T13:19:49;3.97;;;2.80;;
26600;SDS011;14241;49.260;10.496;2024-02-16T13:22:15;5.32;;;2.30;;
26600;SDS011;14241;49.260;10.496;2024-02-16T13:24:40;4.18;;;2.17;;
26600;SDS011;14241;49.260;10.496;2024-02-16T13:27:06;2.83;;;1.98;;
26600;SDS011;14241;49.260;10.496;2024-02-16T13:29:31;7.20;;;1.98;;
26600;SDS011;14241;49.260;10.496;2024-02-16T13:31:57;3.83;;;2.00;;
26600;SDS011;14241;49.260;10.496;2024-02-16T13:34:22;3.40;;;2.15;;
26600;SDS011;14241;49.260;10.496;2024-02-16T13:36:47;2.85;;;1.80;;
26600;SDS011;14241;49.260;10.496;2024-02-16T13:39:13;3.83;;;2.00;;
26600;SDS011;14241;49.260;10.496;2024-02-16T13:41:39;4.15;;;1.73;;
26600;SDS011;14241;49.260;10.496;2024-02-16T13:44:04;5.93;;;2.17;;
26600;SDS011;14241;49.260;10.496;2024-02-16T13:46:30;4.60;;;1.92;;
26600;SDS011;14241;49.260;10.496;2024-02-16T13:48:55;5.55;;;2.40;;
26600;SDS011;14241;49.260;10.496;2024-02-16T13:51:21;4.43;;;1.88;;
26600;SDS011;14241;49.260;10.496;2024-02-16T13:53:46;4.10;;;2.00;;
26600;SDS011;14241;49.260;10.496;2024-02-16T13:56:12;6.13;;;2.33;;
26600;SDS011;14241;49.260;10.496;2024-02-16T13:58:37;7.38;;;1.75;;
26600;SDS011;14241;49.260;10.496;2024-02-16T14:01:03;6.10;;;2.05;;
26600;SDS011;14241;49.260;10.496;2024-02-16T14:03:29;6.53;;;1.85;;
26600;SDS011;14241;49.260;10.496;2024-02-16T14:05:55;6.47;;;1.85;;
26600;SDS011;14241;49.260;10.496;2024-02-16T14:08:20;4.22;;;2.00;;
26600;SDS011;14241;49.260;10.496;2024-02-16T14:10:46;7.75;;;1.95;;